Date,TemperatureHighF,TemperatureAvgF,TemperatureLowF,DewpointHighF,DewpointAvgF,DewpointLowF,HumidityHigh,HumidityAvg,HumidityLow,PressureMaxIn,PressureMinIn,WindSpeedMaxMPH,WindSpeedAvgMPH,GustSpeedMaxMPH,PrecipitationSumIn
2013-3-25,29,29,28,18,18,17,64,64,63,30.36,30.35,0,0,2,0.00
2013-3-26,38,30,14,25,20,11,88,67,51,30.42,30.36,3,0,7,0.00
2013-3-27,41,32,21,24,20,15,82,63,43,30.44,30.39,2,0,3,0.00
2013-3-28,41,23,10,26,16,7,91,74,42,30.46,30.41,3,0,3,0.00
2013-3-29,50,39,24,33,29,20,88,67,43,30.37,30.10,4,0,7,0.00
2013-3-30,53,42,33,41,32,25,96,72,45,30.10,29.89,2,0,11,0.26
2013-3-31,33,28,18,27,19,9,90,68,53,30.20,29.81,4,1,9,0.01
2013-4-1,32,22,10,13,9,5,80,60,41,30.36,30.20,2,1,7,0.00
2013-4-2,35,24,9,15,10,5,92,59,32,30.48,30.35,2,0,5,0.00
2013-4-3,40,28,10,32,18,6,84,66,43,30.49,30.06,7,1,13,0.00
2013-4-4,40,34,24,32,23,14,93,66,41,30.31,30.04,3,1,12,0.00
2013-4-5,36,27,15,27,18,10,93,70,51,30.38,30.08,10,3,16,0.00
2013-4-6,36,32,29,34,30,26,95,93,90,30.08,29.73,10,3,14,0.24
2013-4-7,36,33,31,31,30,29,95,87,78,30.00,29.85,7,1,8,0.10
2013-4-8,39,34,31,35,32,22,96,89,69,30.23,29.91,2,0,5,0.16
2013-4-9,36,29,18,24,19,12,78,68,57,30.38,30.22,6,1,10,0.00
2013-4-10,40,34,24,26,19,14,68,55,39,30.40,30.17,9,3,14,0.00
2013-4-11,32,28,26,25,21,17,93,75,59,30.20,29.98,15,9,18,0.00
2013-4-12,32,27,23,25,24,21,93,87,75,29.98,29.92,8,2,13,0.08
2013-4-13,36,28,21,25,21,19,91,78,59,30.09,29.96,3,0,6,0.04
2013-4-14,38,28,14,29,22,11,95,82,57,30.10,29.69,16,7,23,0.00
2013-4-15,39,33,30,37,32,28,96,94,79,29.96,29.55,13,3,15,0.10
2013-4-16,40,35,30,32,28,24,100,76,55,30.46,29.96,4,1,7,0.01
2013-4-17,34,32,30,30,29,28,95,87,77,30.48,30.21,6,2,7,0.02
2013-4-18,33,30,29,31,28,27,95,93,85,30.21,29.75,3,0,7,0.24
2013-4-19,37,29,23,28,20,8,95,71,36,30.09,29.72,3,1,8,0.38
2013-4-20,36,24,4,19,11,0,88,59,38,30.40,30.09,3,0,7,0.10
2013-4-21,36,30,21,33,25,10,95,82,62,30.41,30.11,11,3,17,0.18
2013-4-22,38,32,26,32,26,22,95,79,60,30.39,30.22,1,0,3,0.00
2013-4-23,41,33,24,24,20,17,72,59,40,30.33,30.12,2,0,5,0.00
2013-4-24,42,33,21,33,26,16,89,74,47,30.12,29.96,4,0,6,0.03
2013-4-25,45,36,27,30,26,22,93,71,42,30.23,30.05,1,0,5,0.00
2013-4-26,64,47,34,39,32,26,80,60,32,30.19,30.04,6,0,7,0.00
2013-4-27,67,51,30,38,33,27,90,56,31,30.19,29.88,2,0,6,0.00
2013-4-28,52,48,44,44,38,33,82,67,53,29.89,29.74,2,0,2,0.00